Flight Track Log - Related Links

Times and Time Zones

All times are in EDT time to prevent confusion due to time zone crossing. See the N6GD flight status page for this flight to view local times or setup timezone preferences in your user account.

Time Position Orientation Groundspeed Altitude Reporting Facility
EDT Latitude Longitude Course Direction KTS MPH feet Rate Location/Type
Sun 02:26:45 PM 27.9167 -82.6833 344° North 193 222 600  Level Tampa TRACON
Sun 02:27:39 PM 27.9667 -82.7000 344° North 206 237 2,200 2,061 Climbing Tampa TRACON
Sun 02:29:28 PM 28.0997 -82.6831 North 244 281 6,200 2,237 Climbing Jacksonville Center
Sun 02:30:28 PM 28.1789 -82.6736 North 263 303 8,500 2,150 Climbing Jacksonville Center
Sun 02:31:28 PM 28.2625 -82.6592 North 282 325 10,500 1,900 Climbing Jacksonville Center
Sun 02:32:28 PM 28.3481 -82.6708 353° North 292 336 12,300 1,700 Climbing Jacksonville Center
Sun 02:33:28 PM 28.4356 -82.6989 344° North 308 354 13,900 1,600 Climbing Jacksonville Center
Sun 02:34:28 PM 28.5317 -82.7272 345° North 330 380 15,500 1,750 Climbing Jacksonville Center
Sun 02:35:28 PM 28.6256 -82.7553 345° North 346 398 17,400 1,767 Climbing Jacksonville Center
Sun 02:37:28 PM 28.8239 -82.8144 North 361 415 20,800 1,633 Climbing Jacksonville Center
Sun 02:38:28 PM 28.9283 -82.8475 345° North 367 422 22,300 1,400 Climbing Jacksonville Center
Sun 02:39:28 PM 29.0369 -82.8806 345° North 385 443 23,600 1,350 Climbing Jacksonville Center
Sun 02:40:28 PM 29.1456 -82.9117 346° North 391 450 25,000 1,500 Climbing Jacksonville Center
Sun 02:41:28 PM 29.2561 -82.9450 345° North 401 461 26,600 1,600 Climbing Jacksonville Center
Sun 02:42:28 PM 29.3667 -82.9808 344° North 401 461 28,200 1,650 Climbing Jacksonville Center
Sun 02:43:28 PM 29.4772 -83.0119 346° North 401 461 29,900 1,650 Climbing Jacksonville Center
Sun 02:44:28 PM 29.5919 -83.0383 349° North 407 468 31,500 1,600 Climbing Jacksonville Center
Sun 02:45:28 PM 29.7069 -83.0217 North 407 468 33,100 968 Climbing Jacksonville Center
Sun 02:47:03 PM 29.8714 -82.9750 14° North 421 484 34,000 467 Climbing Miami Center
Sun 02:48:28 PM 30.0578 -82.9236 13° North 449 517 34,500 414 Climbing Jacksonville Center
Sun 02:49:28 PM 30.1872 -82.8878 13° North 466 536 35,000 250 Climbing Jacksonville Center
Sun 02:50:28 PM 30.3186 -82.8492 14° North 476 548 35,000  Level Jacksonville Center
Sun 02:51:28 PM 30.4503 -82.8131 13° North 476 548 35,000  Level Jacksonville Center
Sun 02:52:28 PM 30.5775 -82.7792 13° North 476 548 35,000  Level Jacksonville Center
Sun 02:53:28 PM 30.7092 -82.7428 13° North 471 542 35,000  Level Jacksonville Center
Sun 02:54:28 PM 30.8406 -82.7064 13° North 471 542 35,000  Level Jacksonville Center
Sun 02:55:28 PM 30.9742 -82.6697 13° North 471 542 35,000  Level Jacksonville Center
Sun 02:56:28 PM 31.1056 -82.6306 14° North 471 542 35,000 -300 Level Jacksonville Center
Sun 02:57:28 PM 31.2392 -82.5986 12° North 477 549 34,400 -1,000 Descending Jacksonville Center
Sun 02:58:28 PM 31.3600 -82.5008 35° Northeast 464 534 33,000 -700 Descending Jacksonville Center
Sun 02:59:28 PM 31.4536 -82.3933 44° Northeast 464 534 33,000  Level Jacksonville Center
Sun 03:00:28 PM 31.5450 -82.3050 39° Northeast 465 535 33,000  Level Jacksonville Center
Sun 03:03:05 PM 31.8733 -82.3906 348° North 486 559 33,000  Level Atlanta Center
Sun 03:04:05 PM 31.9911 -82.4667 331° Northwest 481 554 33,000  Level Atlanta Center
Sun 03:05:05 PM 32.1047 -82.5383 332° Northwest 469 540 33,000  Level Atlanta Center
Sun 03:06:05 PM 32.2261 -82.5656 349° North 445 512 33,000  Level Atlanta Center
Sun 03:07:05 PM 32.3369 -82.5761 355° North 437 503 33,000 -933 Level Atlanta Center
Sun 03:09:05 PM 32.5769 -82.5819 359° North 427 491 30,200 -1,567 Descending Atlanta Center
Sun 03:10:05 PM 32.6919 -82.5900 357° North 422 486 28,300 -1,867 Descending Atlanta Center
Sun 03:12:05 PM 32.8767 -82.6858 336° Northwest 360 414 24,600 -1,900 Descending Atlanta Center
Sun 03:13:05 PM 32.9322 -82.7914 302° West 354 407 22,600 -2,250 Descending Atlanta Center
Sun 03:14:05 PM 32.9853 -82.8947 301° West 360 414 20,100 -2,450 Descending Atlanta Center
Sun 03:15:05 PM 33.0425 -83.0006 303° West 373 429 17,700 -1,850 Descending Atlanta Center
Sun 03:16:05 PM 33.0978 -83.1089 301° West 379 436 16,400 -1,200 Descending Atlanta Center
Sun 03:17:05 PM 33.1528 -83.2100 303° West 374 430 15,300 -1,000 Descending Atlanta Center
Sun 03:18:05 PM 33.2056 -83.3114 302° West 369 425 14,400 -950 Descending Atlanta Center
Sun 03:19:05 PM 33.2561 -83.4153 300° West 364 419 13,400 -950 Descending Atlanta Center
Sun 03:20:05 PM 33.3067 -83.5119 302° West 352 405 12,500 -1,000 Descending Atlanta Center
Sun 03:21:05 PM 33.3531 -83.6036 301° West 347 399 11,400 -600 Descending Atlanta Center
Sun 03:23:05 PM 33.4725 -83.7400 316° Northwest 306 352 10,700 -933 Descending Atlanta Center
Sun 03:24:05 PM 33.5436 -83.7869 331° Northwest 300 345 8,600 -1,300 Descending Atlanta Center
Sun 03:25:05 PM 33.6103 -83.8217 337° Northwest 278 320 8,100 -1,100 Descending Atlanta Center
Sun 03:26:05 PM 33.6500 -83.8817 309° West 247 284 6,400 -1,600 Descending Atlanta Center
Sun 03:27:05 PM 33.6794 -83.9489 298° West 234 269 4,900 -1,500 Descending Atlanta Center
Sun 03:28:05 PM 33.7108 -84.0114 301° West 223 257 3,400 -950 Descending Atlanta Center
Sun 03:29:05 PM 33.7461 -84.0689 306° West 218 251 3,000 -200 Descending Atlanta Center
Sun 03:30:05 PM 33.7756 -84.1289 301° West 213 245 3,000  Level Atlanta Center
Sun 03:31:09 PM 33.8000 -84.2000 292° West 209 241 3,000 -339 Level Atlanta TRACON
Sun 03:32:09 PM 33.8167 -84.2667 287° West 189 217 2,300 -700 Descending Atlanta TRACON
Sun 03:33:09 PM 33.8333 -84.3167 292° West 149 171 1,600 -700 Descending Atlanta TRACON
Sun 03:35:00 PM 33.8667 -84.3000 301° West  Level FlightAware Approximate
Sun 03:42:00 PM 33.8756 -84.3020 350° North  Level Estimated

Login

Don't have an account? Register now (free) for customized features, flight alerts, and more!